createdAt,value
2023-02-06T00:03:42.189Z,2.20
2023-02-06T00:08:44.967Z,1.60
2023-02-06T00:13:47.844Z,2.40
2023-02-06T00:18:53.190Z,2.10
2023-02-06T00:23:57.897Z,1.90
2023-02-06T00:29:00.736Z,2.10
2023-02-06T00:34:05.108Z,1.70
2023-02-06T00:39:07.844Z,2.15
2023-02-06T00:44:11.125Z,3.15
2023-02-06T00:49:15.370Z,3.08
2023-02-06T00:54:20.796Z,2.83
2023-02-06T00:59:23.585Z,3.22
2023-02-06T01:04:27.811Z,3.10
2023-02-06T01:09:30.559Z,3.75
2023-02-06T01:14:33.304Z,3.58
2023-02-06T01:19:38.296Z,3.88
2023-02-06T01:24:41.348Z,4.75
2023-02-06T01:29:45.304Z,3.65
2023-02-06T01:34:49.548Z,3.63
2023-02-06T01:39:52.321Z,3.72
2023-02-06T01:45:30.735Z,3.70
2023-02-06T01:50:38.845Z,4.03
2023-02-06T01:55:44.933Z,4.13
2023-02-06T02:00:49.137Z,6.68
2023-02-06T02:05:58.447Z,2.58
2023-02-06T02:11:05.469Z,3.20
2023-02-06T02:16:16.148Z,2.85
2023-02-06T02:21:50.505Z,3.30
2023-02-06T02:27:19.395Z,2.20
2023-02-06T02:32:38.864Z,2.55
2023-02-06T02:37:53.675Z,3.03
2023-02-06T02:43:06.117Z,3.22
2023-02-06T02:48:13.825Z,3.47
2023-02-06T02:53:18.278Z,2.70
2023-02-06T02:58:26.706Z,3.30
2023-02-06T03:03:32.792Z,3.28
2023-02-06T03:08:49.201Z,3.17
2023-02-06T03:13:56.682Z,3.10
2023-02-06T03:19:06.410Z,3.50
2023-02-06T03:24:15.424Z,3.25
2023-02-06T03:29:19.910Z,3.25
2023-02-06T03:34:26.705Z,3.60
2023-02-06T03:39:31.166Z,3.80
2023-02-06T03:44:37.410Z,3.58
2023-02-06T03:49:42.386Z,2.87
2023-02-06T03:54:52.696Z,3.55
2023-02-06T03:59:55.694Z,3.80
2023-02-06T04:04:58.771Z,3.45
2023-02-06T04:10:03.152Z,3.78
2023-02-06T04:15:06.742Z,4.28
2023-02-06T04:20:11.224Z,4.10
2023-02-06T04:25:15.841Z,4.03
2023-02-06T04:30:18.945Z,3.58
2023-02-06T04:35:22.407Z,3.92
2023-02-06T04:40:26.684Z,4.25
2023-02-06T04:45:29.379Z,4.40
2023-02-06T04:50:34.227Z,4.55
2023-02-06T04:55:38.515Z,4.32
2023-02-06T05:00:41.358Z,4.45
2023-02-06T05:05:44.439Z,5.55
2023-02-06T05:10:48.581Z,5.18
2023-02-06T05:15:51.557Z,4.72
2023-02-06T05:20:54.361Z,5.30
2023-02-06T05:25:58.472Z,5.93
2023-02-06T05:31:01.770Z,4.68
2023-02-06T05:36:06.426Z,5.00
2023-02-06T05:41:10.717Z,5.85
2023-02-06T05:46:13.816Z,5.43
2023-02-06T05:51:16.893Z,6.25
2023-02-06T05:56:21.101Z,5.65
2023-02-06T06:01:23.848Z,6.00
2023-02-06T06:06:26.612Z,5.63
2023-02-06T06:11:31.891Z,5.03
2023-02-06T06:16:35.060Z,4.80
2023-02-06T06:21:37.933Z,7.13
2023-02-06T06:26:42.204Z,6.50
2023-02-06T06:31:46.094Z,5.97
2023-02-06T06:36:48.906Z,11.40
2023-02-06T06:41:53.405Z,7.53
2023-02-06T06:46:56.127Z,8.38
2023-02-06T06:51:58.907Z,8.50
2023-02-06T06:57:03.525Z,9.35
2023-02-06T07:02:06.421Z,7.00
2023-02-06T07:07:09.597Z,8.05
2023-02-06T07:12:14.221Z,8.40
2023-02-06T07:17:17.056Z,8.98
2023-02-06T07:22:20.339Z,10.45
2023-02-06T07:27:24.814Z,11.10
2023-02-06T07:32:27.701Z,10.20
2023-02-06T07:37:30.578Z,9.63
2023-02-06T07:42:35.084Z,12.63
2023-02-06T07:47:49.719Z,9.07
2023-02-06T07:52:52.482Z,9.32
2023-02-06T07:57:57.007Z,8.48
2023-02-06T08:03:00.900Z,9.73
2023-02-06T08:08:04.016Z,9.43
2023-02-06T08:13:08.505Z,9.60
2023-02-06T08:18:12.080Z,6.93
2023-02-06T08:23:14.856Z,8.50
2023-02-06T08:28:18.985Z,6.25
2023-02-06T08:33:21.970Z,9.98
2023-02-06T08:38:24.723Z,7.00
2023-02-06T08:43:28.914Z,5.75
2023-02-06T08:48:31.819Z,4.53
2023-02-06T08:53:34.924Z,5.90
2023-02-06T08:58:40.121Z,5.75
2023-02-06T09:03:43.556Z,6.07
2023-02-06T09:08:46.598Z,5.45
2023-02-06T09:13:52.040Z,5.03
2023-02-06T09:18:56.045Z,5.88
2023-02-06T09:24:00.553Z,5.03
2023-02-06T09:29:07.699Z,4.70
2023-02-06T09:34:12.998Z,4.97
2023-02-06T09:39:15.739Z,5.53
2023-02-06T09:44:23.272Z,5.72
2023-02-06T09:49:30.966Z,5.25
2023-02-06T09:54:45.431Z,8.13
2023-02-06T09:59:56.372Z,4.72
2023-02-06T10:05:08.926Z,5.03
2023-02-06T10:10:16.803Z,6.10
2023-02-06T10:15:30.372Z,4.78
2023-02-06T10:20:36.281Z,6.05
2023-02-06T10:25:43.111Z,6.18
2023-02-06T10:31:11.199Z,6.40
2023-02-06T10:36:28.533Z,5.95
2023-02-06T10:41:40.592Z,5.80
2023-02-06T10:46:48.279Z,5.70
2023-02-06T10:51:55.145Z,6.57
2023-02-06T10:56:59.867Z,5.68
2023-02-06T11:02:19.487Z,6.95
2023-02-06T11:07:27.242Z,6.00
2023-02-06T11:12:35.078Z,6.00
2023-02-06T11:17:39.356Z,6.03
2023-02-06T11:22:52.278Z,8.35
2023-02-06T11:27:56.371Z,7.38
2023-02-06T11:33:05.174Z,6.38
2023-02-06T11:38:16.321Z,4.72
2023-02-06T11:43:22.071Z,5.18
2023-02-06T11:48:40.673Z,5.15
2023-02-06T11:53:57.254Z,4.50
2023-02-06T11:59:07.115Z,4.25
2023-02-06T12:04:23.669Z,5.43
2023-02-06T12:09:27.922Z,6.05
2023-02-06T12:14:36.205Z,4.47
2023-02-06T12:19:49.889Z,4.28
2023-02-06T12:24:55.669Z,3.65
2023-02-06T12:30:03.272Z,3.80
2023-02-06T12:35:16.519Z,3.70
2023-02-06T12:40:30.180Z,3.92
2023-02-06T12:45:42.603Z,3.75
2023-02-06T12:50:52.089Z,5.38
2023-02-06T12:56:01.645Z,4.35
2023-02-06T13:01:30.645Z,4.15
2023-02-06T13:06:47.375Z,4.22
2023-02-06T13:11:50.293Z,4.75
2023-02-06T13:16:56.814Z,3.92
2023-02-06T13:22:45.792Z,4.20
2023-02-06T13:27:50.032Z,4.45
2023-02-06T13:32:53.396Z,3.97
2023-02-06T13:38:26.180Z,4.18
2023-02-06T13:43:31.758Z,4.45
2023-02-06T13:48:51.390Z,7.97
2023-02-06T13:54:17.056Z,4.75
2023-02-06T13:59:25.744Z,4.70
2023-02-06T14:04:33.412Z,5.20
2023-02-06T14:10:13.849Z,5.88
2023-02-06T14:15:28.337Z,6.88
2023-02-06T14:20:42.360Z,6.13
2023-02-06T14:26:07.407Z,6.72
2023-02-06T14:31:22.134Z,6.78
2023-02-06T14:36:38.568Z,7.13
2023-02-06T14:41:41.495Z,7.07
2023-02-06T14:46:46.572Z,6.78
2023-02-06T14:51:51.793Z,8.13
2023-02-06T14:56:57.797Z,6.72
2023-02-06T15:02:14.026Z,7.10
2023-02-06T15:07:23.924Z,26.17
2023-02-06T15:12:29.050Z,6.50
2023-02-06T15:17:34.347Z,3.75
2023-02-06T15:22:37.633Z,2.80
2023-02-06T15:27:40.527Z,2.38
2023-02-06T15:32:49.547Z,2.38
2023-02-06T15:37:53.801Z,1.73
2023-02-06T15:42:57.198Z,2.38
2023-02-06T15:48:09.912Z,2.75
2023-02-06T15:53:20.626Z,2.40
2023-02-06T15:58:25.075Z,12.57
2023-02-06T16:03:31.358Z,4.60
2023-02-06T16:08:38.055Z,5.67
2023-02-06T16:13:41.052Z,2.35
2023-02-06T16:18:46.534Z,2.88
2023-02-06T16:23:51.621Z,2.80
2023-02-06T16:28:58.611Z,2.38
2023-02-06T16:34:04.154Z,2.15
2023-02-06T16:39:07.311Z,2.60
2023-02-06T16:44:15.591Z,2.80
2023-02-06T16:49:22.041Z,3.97
2023-02-06T16:54:28.278Z,2.60
2023-02-06T16:59:31.138Z,2.77
2023-02-06T17:04:35.379Z,7.90
2023-02-06T17:09:38.164Z,6.85
2023-02-06T17:14:42.624Z,7.03
2023-02-06T17:19:47.531Z,9.50
2023-02-06T17:24:50.494Z,8.38
2023-02-06T17:29:53.766Z,5.63
2023-02-06T17:35:01.498Z,4.95
2023-02-06T17:40:05.409Z,4.40
2023-02-06T17:45:09.143Z,4.28
2023-02-06T17:50:14.913Z,7.60
2023-02-06T17:55:17.754Z,5.57
2023-02-06T18:00:23.228Z,5.07
2023-02-06T18:05:28.008Z,5.60
2023-02-06T18:10:30.792Z,6.10
2023-02-06T18:15:33.634Z,5.85
2023-02-06T18:20:38.016Z,32.33
2023-02-06T18:25:43.422Z,18.30
2023-02-06T18:30:46.796Z,17.98
2023-02-06T18:35:51.544Z,16.15
2023-02-06T18:40:54.577Z,9.32
2023-02-06T18:45:57.554Z,9.18
2023-02-06T18:51:01.873Z,21.60
2023-02-06T18:56:04.645Z,15.43
2023-02-06T19:01:13.051Z,11.45
2023-02-06T19:06:19.104Z,8.00
2023-02-06T19:11:21.845Z,7.38
2023-02-06T19:16:26.398Z,12.40
2023-02-06T19:21:30.789Z,9.60
2023-02-06T19:26:33.761Z,8.05
2023-02-06T19:31:39.393Z,6.38
2023-02-06T19:36:43.587Z,6.90
2023-02-06T19:41:46.572Z,6.68
2023-02-06T19:46:49.500Z,8.13
2023-02-06T19:51:53.824Z,11.55
2023-02-06T19:56:56.765Z,8.25
2023-02-06T20:02:01.711Z,8.23
2023-02-06T20:07:06.123Z,6.15
2023-02-06T20:12:10.171Z,8.18
2023-02-06T20:17:13.546Z,7.30
2023-02-06T20:22:17.804Z,10.57
2023-02-06T20:27:20.666Z,8.75
2023-02-06T20:32:24.330Z,9.45
2023-02-06T20:37:28.688Z,7.82
2023-02-06T20:42:32.016Z,7.00
2023-02-06T20:47:35.142Z,6.20
2023-02-06T20:52:39.380Z,8.00
2023-02-06T20:57:42.255Z,7.10
2023-02-06T21:02:45.111Z,7.20
2023-02-06T21:07:49.308Z,7.80
2023-02-06T21:12:52.182Z,6.72
2023-02-06T21:17:55.113Z,7.57
2023-02-06T21:22:59.663Z,6.80
2023-02-06T21:28:03.600Z,6.90
2023-02-06T21:33:07.100Z,7.38
2023-02-06T21:38:11.517Z,7.55
2023-02-06T21:43:15.768Z,6.55
2023-02-06T21:48:18.480Z,6.70
2023-02-06T21:53:22.859Z,7.32
2023-02-06T21:58:25.592Z,7.35
2023-02-06T22:03:28.315Z,7.38
2023-02-06T22:08:32.775Z,7.50
2023-02-06T22:13:35.471Z,9.13
2023-02-06T22:18:38.516Z,7.90
2023-02-06T22:23:43.697Z,8.77
2023-02-06T22:28:47.359Z,9.02
2023-02-06T22:33:50.885Z,10.10
2023-02-06T22:38:57.376Z,8.13
2023-02-06T22:44:00.262Z,8.73
2023-02-06T22:49:03.404Z,7.68
2023-02-06T22:54:09.370Z,9.23
2023-02-06T22:59:14.531Z,6.97
2023-02-06T23:04:18.750Z,7.68
2023-02-06T23:09:24.322Z,7.72
2023-02-06T23:14:28.792Z,7.88
2023-02-06T23:19:31.740Z,7.10
2023-02-06T23:24:35.831Z,6.93
2023-02-06T23:29:38.654Z,6.03
2023-02-06T23:34:41.461Z,6.75
2023-02-06T23:39:45.598Z,6.00
2023-02-06T23:44:48.338Z,5.85
2023-02-06T23:49:51.409Z,5.63
2023-02-06T23:54:55.664Z,4.88
2023-02-06T23:59:58.533Z,4.05
